Time;durP1;ratioP1;P1;durP2;ratioP2;P2;SDS_P1;SDS_P2;PMS_P1;PMS_P2;Temp;Humidity;BMP_temperature;BMP_pressure;BME280_temperature;BME280_humidity;BME280_pressure;Samples;Min_cycle;Max_cycle;Signal;HPM_P1;HPM_P2
2023/12/06 00:00:38;;;;;;;2.72;2.55;;;;;;;;;;5039104;28;20048;-60
2023/12/06 00:03:07;;;;;;;2.38;2.28;;;;;;;;;;5036365;28;20079;-62
2023/12/06 00:05:35;;;;;;;2.65;2.55;;;;;;;;;;5041711;28;20052;-62
2023/12/06 00:08:03;;;;;;;2.25;2.15;;;;;;;;;;5038554;28;20122;-62
2023/12/06 00:10:32;;;;;;;2.17;2.08;;;;;;;;;;5035389;28;20057;-61
2023/12/06 00:13:00;;;;;;;2.47;2.38;;;;;;;;;;5040418;28;20048;-61
2023/12/06 00:15:30;;;;;;;2.55;2.42;;;;;;;;;;5040680;28;20033;-63
2023/12/06 00:17:58;;;;;;;2.67;2.58;;;;;;;;;;5041010;28;20053;-62
2023/12/06 00:20:27;;;;;;;2.95;2.85;;;;;;;;;;5036548;28;20037;-61
2023/12/06 00:22:55;;;;;;;2.33;2.22;;;;;;;;;;5040081;28;20053;-61
2023/12/06 00:25:24;;;;;;;2.50;2.40;;;;;;;;;;5038067;28;20037;-61
2023/12/06 00:27:53;;;;;;;3.00;2.55;;;;;;;;;;5042391;28;20052;-61
2023/12/06 00:30:21;;;;;;;2.72;2.63;;;;;;;;;;5043157;28;20453;-62
2023/12/06 00:32:52;;;;;;;2.88;2.78;;;;;;;;;;5043740;28;20044;-61
2023/12/06 00:35:20;;;;;;;3.10;3.00;;;;;;;;;;5036276;28;20050;-63
2023/12/06 00:37:49;;;;;;;2.60;2.50;;;;;;;;;;5047008;28;20080;-61
2023/12/06 00:40:17;;;;;;;5.32;2.40;;;;;;;;;;5050163;28;20052;-61
2023/12/06 00:42:45;;;;;;;2.97;2.78;;;;;;;;;;5042282;28;20041;-61
2023/12/06 00:45:14;;;;;;;3.15;2.85;;;;;;;;;;5042014;28;20520;-63
2023/12/06 00:47:43;;;;;;;2.55;2.45;;;;;;;;;;5041962;28;20077;-61
2023/12/06 00:50:13;;;;;;;4.05;2.88;;;;;;;;;;5045987;28;20378;-61
2023/12/06 00:52:41;;;;;;;3.22;2.83;;;;;;;;;;5047072;28;20045;-62
2023/12/06 00:55:09;;;;;;;3.17;2.97;;;;;;;;;;5045472;28;20111;-63
2023/12/06 00:57:38;;;;;;;2.92;2.72;;;;;;;;;;5046393;28;20045;-63
2023/12/06 01:00:08;;;;;;;2.97;2.88;;;;;;;;;;5049108;28;20068;-61
2023/12/06 01:02:36;;;;;;;3.28;3.00;;;;;;;;;;5046399;28;20049;-62
2023/12/06 01:05:06;;;;;;;2.92;2.72;;;;;;;;;;5043602;28;20052;-61
2023/12/06 01:07:35;;;;;;;2.58;2.47;;;;;;;;;;5038919;28;20051;-62
2023/12/06 01:10:04;;;;;;;3.08;2.88;;;;;;;;;;5041436;28;20149;-61
2023/12/06 01:12:32;;;;;;;3.30;3.10;;;;;;;;;;5050064;28;20068;-61
2023/12/06 01:15:02;;;;;;;3.47;3.10;;;;;;;;;;5042365;28;20489;-62
2023/12/06 01:17:32;;;;;;;2.85;2.65;;;;;;;;;;5040068;28;20341;-61
2023/12/06 01:20:00;;;;;;;3.13;3.00;;;;;;;;;;5047542;28;20056;-62
2023/12/06 01:22:29;;;;;;;2.60;2.50;;;;;;;;;;5049728;28;20533;-63
2023/12/06 01:24:59;;;;;;;2.70;2.60;;;;;;;;;;5039144;28;20345;-61
2023/12/06 01:27:28;;;;;;;2.58;2.47;;;;;;;;;;5046321;28;20065;-61
2023/12/06 01:29:56;;;;;;;2.63;2.50;;;;;;;;;;5041836;28;20080;-63
2023/12/06 01:32:39;;;;;;;2.40;2.30;;;;;;;;;;5045255;28;20155;-61
2023/12/06 01:35:08;;;;;;;2.65;2.55;;;;;;;;;;5049460;28;20053;-60
2023/12/06 01:37:36;;;;;;;3.30;3.10;;;;;;;;;;5040563;28;20103;-61
2023/12/06 01:40:07;;;;;;;2.72;2.47;;;;;;;;;;5050142;28;20079;-61
2023/12/06 01:42:36;;;;;;;2.40;2.30;;;;;;;;;;5047793;28;20045;-61
2023/12/06 01:45:05;;;;;;;2.80;2.70;;;;;;;;;;5044889;28;20045;-62
2023/12/06 01:47:34;;;;;;;2.50;2.40;;;;;;;;;;5036241;28;20052;-61
2023/12/06 01:50:03;;;;;;;2.40;2.30;;;;;;;;;;5045342;28;20413;-61
2023/12/06 01:52:33;;;;;;;2.40;2.30;;;;;;;;;;5047817;28;20081;-61
2023/12/06 01:55:03;;;;;;;2.10;2.00;;;;;;;;;;5043439;28;20044;-63
2023/12/06 01:57:33;;;;;;;2.50;2.40;;;;;;;;;;5040426;28;20128;-64
2023/12/06 02:00:04;;;;;;;2.22;2.13;;;;;;;;;;5046370;28;20053;-61
2023/12/06 02:02:32;;;;;;;2.30;2.20;;;;;;;;;;5039725;28;20064;-61
2023/12/06 02:05:01;;;;;;;2.25;2.15;;;;;;;;;;5044064;28;20049;-63
2023/12/06 02:07:30;;;;;;;2.03;1.92;;;;;;;;;;5046285;28;20221;-62
2023/12/06 02:09:59;;;;;;;1.98;1.88;;;;;;;;;;5047358;28;20053;-61
2023/12/06 02:12:27;;;;;;;2.10;2.00;;;;;;;;;;5045409;28;20539;-61
2023/12/06 02:14:59;;;;;;;2.45;2.35;;;;;;;;;;5046271;28;20079;-61
2023/12/06 02:17:27;;;;;;;2.33;1.90;;;;;;;;;;5041714;28;20049;-61
2023/12/06 02:19:56;;;;;;;2.25;2.15;;;;;;;;;;5041822;28;20080;-61
2023/12/06 02:22:25;;;;;;;2.10;2.00;;;;;;;;;;5039413;28;20179;-62
2023/12/06 02:24:55;;;;;;;2.20;2.10;;;;;;;;;;5045911;28;20094;-61
2023/12/06 02:27:24;;;;;;;2.53;2.42;;;;;;;;;;5042647;28;20064;-63
2023/12/06 02:29:53;;;;;;;1.75;1.75;;;;;;;;;;5042610;28;20122;-60
2023/12/06 02:32:21;;;;;;;2.05;1.95;;;;;;;;;;5045974;28;20072;-61
2023/12/06 02:34:51;;;;;;;2.00;1.90;;;;;;;;;;5039196;28;20087;-61
2023/12/06 02:37:21;;;;;;;2.40;2.30;;;;;;;;;;5038286;28;20072;-61
2023/12/06 02:39:51;;;;;;;2.00;1.90;;;;;;;;;;5044613;28;20053;-61
2023/12/06 02:42:19;;;;;;;2.35;2.25;;;;;;;;;;5046653;28;20494;-61
2023/12/06 02:44:49;;;;;;;1.88;1.85;;;;;;;;;;5041101;28;20048;-60
2023/12/06 02:47:17;;;;;;;2.22;2.13;;;;;;;;;;5039087;28;20098;-62
2023/12/06 02:49:46;;;;;;;2.42;2.33;;;;;;;;;;5043538;28;20486;-61
2023/12/06 02:52:15;;;;;;;2.25;2.15;;;;;;;;;;5047067;28;20494;-61
2023/12/06 02:54:43;;;;;;;2.20;2.10;;;;;;;;;;5041847;28;20059;-62
2023/12/06 02:57:12;;;;;;;2.38;2.20;;;;;;;;;;5045960;28;20052;-61
2023/12/06 02:59:40;;;;;;;2.28;2.17;;;;;;;;;;5042915;28;20499;-61
2023/12/06 03:02:10;;;;;;;2.17;2.08;;;;;;;;;;5043318;28;20077;-63
2023/12/06 03:04:38;;;;;;;1.90;1.80;;;;;;;;;;5038625;28;20819;-60
2023/12/06 03:07:06;;;;;;;2.38;2.28;;;;;;;;;;5038489;28;20060;-61
2023/12/06 03:09:35;;;;;;;1.98;1.88;;;;;;;;;;5041196;28;20053;-61
2023/12/06 03:12:03;;;;;;;1.95;1.90;;;;;;;;;;5042741;28;20582;-62
2023/12/06 03:14:31;;;;;;;2.10;2.00;;;;;;;;;;5033973;28;20084;-62
2023/12/06 03:17:00;;;;;;;2.05;1.95;;;;;;;;;;5042006;28;20045;-60
2023/12/06 03:19:30;;;;;;;2.40;2.30;;;;;;;;;;5042511;28;20041;-61
2023/12/06 03:21:58;;;;;;;2.47;2.38;;;;;;;;;;5038624;28;20354;-61
2023/12/06 03:24:26;;;;;;;2.28;2.17;;;;;;;;;;5047057;28;20071;-62
2023/12/06 03:26:55;;;;;;;2.55;2.45;;;;;;;;;;5037817;28;20049;-61
2023/12/06 03:29:23;;;;;;;2.30;2.20;;;;;;;;;;5042807;28;20040;-62
2023/12/06 03:31:52;;;;;;;2.47;2.38;;;;;;;;;;5038845;28;20098;-62
2023/12/06 03:34:20;;;;;;;2.25;2.15;;;;;;;;;;5045243;28;20076;-61
2023/12/06 03:36:50;;;;;;;1.98;1.92;;;;;;;;;;5046642;28;20414;-61
2023/12/06 03:39:18;;;;;;;2.10;2.00;;;;;;;;;;5041182;28;20510;-62
2023/12/06 03:41:47;;;;;;;2.30;2.20;;;;;;;;;;5040527;28;20049;-61
2023/12/06 03:44:15;;;;;;;2.30;2.20;;;;;;;;;;5048188;28;20065;-62
2023/12/06 03:46:43;;;;;;;1.83;1.80;;;;;;;;;;5040379;28;20069;-62
2023/12/06 03:49:12;;;;;;;1.80;1.80;;;;;;;;;;5042312;28;20058;-63
2023/12/06 03:51:40;;;;;;;2.40;2.30;;;;;;;;;;5039253;28;20057;-61
2023/12/06 03:54:10;;;;;;;2.15;2.05;;;;;;;;;;5041726;28;20368;-64
2023/12/06 03:56:39;;;;;;;1.90;1.90;;;;;;;;;;5033991;28;20139;-62
2023/12/06 03:59:07;;;;;;;2.28;2.17;;;;;;;;;;5044671;28;20053;-63
2023/12/06 04:01:35;;;;;;;1.98;1.88;;;;;;;;;;5043899;28;20049;-62
2023/12/06 04:04:04;;;;;;;2.30;2.10;;;;;;;;;;5043010;28;20115;-62
2023/12/06 04:06:32;;;;;;;2.30;2.20;;;;;;;;;;5044368;28;20536;-62
2023/12/06 04:09:01;;;;;;;2.47;2.38;;;;;;;;;;5046299;28;20049;-63
2023/12/06 04:11:31;;;;;;;2.33;2.22;;;;;;;;;;5046901;28;20067;-62
2023/12/06 04:13:59;;;;;;;2.42;2.33;;;;;;;;;;5046087;28;20130;-62
2023/12/06 04:16:27;;;;;;;2.08;1.98;;;;;;;;;;5041632;28;20256;-62
2023/12/06 04:18:56;;;;;;;2.22;2.05;;;;;;;;;;5042369;28;20434;-62
2023/12/06 04:21:24;;;;;;;2.15;2.05;;;;;;;;;;5046436;28;20049;-62
2023/12/06 04:23:53;;;;;;;2.30;2.20;;;;;;;;;;5039961;28;20084;-64
2023/12/06 04:26:22;;;;;;;2.33;2.22;;;;;;;;;;5047734;28;20119;-66
2023/12/06 04:28:52;;;;;;;2.40;2.30;;;;;;;;;;5042967;28;20127;-62
2023/12/06 04:31:21;;;;;;;2.28;2.17;;;;;;;;;;5037834;28;20049;-63
2023/12/06 04:33:50;;;;;;;1.98;1.88;;;;;;;;;;5045248;28;20046;-62
2023/12/06 04:36:18;;;;;;;2.22;2.13;;;;;;;;;;5040804;28;20417;-63
2023/12/06 04:38:46;;;;;;;1.88;1.77;;;;;;;;;;5043401;28;20063;-64
2023/12/06 04:41:15;;;;;;;2.33;2.22;;;;;;;;;;5042244;28;20063;-63
2023/12/06 04:43:43;;;;;;;2.60;2.17;;;;;;;;;;5041353;28;20159;-62
2023/12/06 04:46:13;;;;;;;2.15;2.05;;;;;;;;;;5046020;28;20037;-63
2023/12/06 04:48:42;;;;;;;2.53;2.40;;;;;;;;;;5046132;28;20052;-62
2023/12/06 04:51:11;;;;;;;2.15;2.05;;;;;;;;;;5036654;28;20045;-61
2023/12/06 04:53:39;;;;;;;2.38;2.28;;;;;;;;;;5043640;28;20658;-64
2023/12/06 04:56:08;;;;;;;2.30;2.20;;;;;;;;;;5034570;28;20068;-62
2023/12/06 04:58:37;;;;;;;2.13;2.03;;;;;;;;;;5044335;28;20052;-62
2023/12/06 05:01:06;;;;;;;2.47;2.35;;;;;;;;;;5047637;28;20123;-62
2023/12/06 05:03:36;;;;;;;2.22;2.13;;;;;;;;;;5046621;28;20057;-62
2023/12/06 05:06:05;;;;;;;2.15;2.05;;;;;;;;;;5043902;28;20047;-63
2023/12/06 05:08:33;;;;;;;2.50;2.40;;;;;;;;;;5039576;28;20099;-64
2023/12/06 05:11:02;;;;;;;2.60;2.40;;;;;;;;;;5045444;28;20454;-62
2023/12/06 05:13:30;;;;;;;2.17;2.08;;;;;;;;;;5043865;28;20083;-63
2023/12/06 05:15:58;;;;;;;2.97;2.88;;;;;;;;;;5043188;28;20041;-62
2023/12/06 05:18:27;;;;;;;2.50;2.30;;;;;;;;;;5042343;28;20049;-62
2023/12/06 05:20:57;;;;;;;2.30;2.20;;;;;;;;;;5041894;28;20049;-63
2023/12/06 05:23:25;;;;;;;2.47;2.38;;;;;;;;;;5040951;28;20421;-63
2023/12/06 05:25:53;;;;;;;2.15;2.05;;;;;;;;;;5044041;28;20053;-62
2023/12/06 05:28:22;;;;;;;2.58;2.47;;;;;;;;;;5044238;28;20041;-62
2023/12/06 05:30:51;;;;;;;2.30;2.20;;;;;;;;;;5044437;28;20146;-63
2023/12/06 05:33:19;;;;;;;2.28;2.17;;;;;;;;;;5043442;28;20045;-64
2023/12/06 05:35:47;;;;;;;2.38;2.28;;;;;;;;;;5044805;28;20045;-64
2023/12/06 05:38:17;;;;;;;2.38;2.28;;;;;;;;;;5040027;28;20049;-63
2023/12/06 05:40:46;;;;;;;2.10;2.00;;;;;;;;;;5039357;28;20057;-65
2023/12/06 05:43:14;;;;;;;2.38;2.28;;;;;;;;;;5045989;28;20653;-63
2023/12/06 05:45:43;;;;;;;2.38;2.28;;;;;;;;;;5045405;28;20068;-63
2023/12/06 05:48:10;;;;;;;2.58;2.45;;;;;;;;;;5046679;28;20049;-62
2023/12/06 05:50:39;;;;;;;2.92;2.78;;;;;;;;;;5038254;28;20156;-65
2023/12/06 05:53:07;;;;;;;2.83;2.72;;;;;;;;;;5045335;28;20045;-65
2023/12/06 05:55:37;;;;;;;2.60;2.50;;;;;;;;;;5043676;28;20103;-63
2023/12/06 05:58:06;;;;;;;15.70;15.00;;;;;;;;;;5034651;28;20045;-62
2023/12/06 06:00:35;;;;;;;3.83;2.72;;;;;;;;;;5039263;28;20095;-64
2023/12/06 06:03:03;;;;;;;2.65;2.55;;;;;;;;;;5039857;28;21194;-63
2023/12/06 06:05:33;;;;;;;2.63;2.47;;;;;;;;;;5041809;28;20037;-65
2023/12/06 06:08:02;;;;;;;2.53;2.42;;;;;;;;;;5037839;28;20053;-65
2023/12/06 06:10:31;;;;;;;2.55;2.45;;;;;;;;;;5036079;28;20145;-63
2023/12/06 06:13:01;;;;;;;2.50;2.40;;;;;;;;;;5042147;28;20236;-62
2023/12/06 06:15:29;;;;;;;2.90;2.70;;;;;;;;;;5037395;28;20041;-63
2023/12/06 06:17:58;;;;;;;2.53;2.42;;;;;;;;;;5040208;28;20115;-64
2023/12/06 06:20:26;;;;;;;2.47;2.33;;;;;;;;;;5038772;28;21158;-64
2023/12/06 06:22:55;;;;;;;2.65;2.55;;;;;;;;;;5044571;28;20063;-62
2023/12/06 06:25:24;;;;;;;2.38;2.28;;;;;;;;;;5039903;28;20045;-63
2023/12/06 06:27:52;;;;;;;2.55;2.45;;;;;;;;;;5042891;28;20049;-63
2023/12/06 06:30:22;;;;;;;2.63;2.53;;;;;;;;;;5048731;28;20045;-65
2023/12/06 06:32:51;;;;;;;2.60;2.50;;;;;;;;;;5049247;28;20426;-62
2023/12/06 06:35:20;;;;;;;2.80;2.50;;;;;;;;;;5047090;28;20045;-64
2023/12/06 06:37:49;;;;;;;2.83;2.63;;;;;;;;;;5048161;28;20061;-63
2023/12/06 06:40:17;;;;;;;2.33;2.22;;;;;;;;;;5049543;28;20045;-64
2023/12/06 06:42:46;;;;;;;2.55;2.45;;;;;;;;;;5049221;28;20048;-64
2023/12/06 06:45:15;;;;;;;2.85;2.65;;;;;;;;;;5036090;28;20050;-65
2023/12/06 06:47:45;;;;;;;2.97;2.88;;;;;;;;;;5047596;28;20222;-63
2023/12/06 06:50:15;;;;;;;4.30;2.55;;;;;;;;;;5037908;28;20103;-63
2023/12/06 06:52:47;;;;;;;2.58;2.47;;;;;;;;;;5033488;28;20056;-62
2023/12/06 06:55:16;;;;;;;2.53;2.42;;;;;;;;;;5039623;28;20045;-63
2023/12/06 06:57:44;;;;;;;2.75;2.65;;;;;;;;;;5048646;28;20053;-70
2023/12/06 07:00:14;;;;;;;2.63;2.53;;;;;;;;;;5047409;28;20041;-64
2023/12/06 07:02:42;;;;;;;2.78;2.53;;;;;;;;;;5048871;28;20052;-63
2023/12/06 07:05:13;;;;;;;2.55;2.42;;;;;;;;;;5042161;28;20045;-65
2023/12/06 07:07:42;;;;;;;2.75;2.65;;;;;;;;;;5047172;28;20229;-64
2023/12/06 07:10:10;;;;;;;2.50;2.40;;;;;;;;;;5044888;28;20126;-63
2023/12/06 07:12:40;;;;;;;2.30;2.20;;;;;;;;;;5048464;28;20389;-63
2023/12/06 07:15:14;;;;;;;2.63;2.53;;;;;;;;;;5044837;28;20045;-64
2023/12/06 07:17:43;;;;;;;2.38;2.28;;;;;;;;;;5048384;28;20041;-64
2023/12/06 07:20:14;;;;;;;2.47;2.38;;;;;;;;;;5044406;28;20549;-64
2023/12/06 07:22:42;;;;;;;2.75;2.65;;;;;;;;;;5047498;28;20052;-65
2023/12/06 07:25:15;;;;;;;2.63;2.42;;;;;;;;;;5042144;28;20049;-64
2023/12/06 07:27:45;;;;;;;2.83;2.63;;;;;;;;;;5039015;28;20056;-65
2023/12/06 07:30:14;;;;;;;2.63;2.45;;;;;;;;;;5042943;28;20475;-65
2023/12/06 07:32:42;;;;;;;2.72;2.60;;;;;;;;;;5048135;28;20040;-63
2023/12/06 07:35:24;;;;;;;2.40;2.30;;;;;;;;;;5047972;28;20049;-66
2023/12/06 07:37:53;;;;;;;2.50;2.40;;;;;;;;;;5047265;28;20131;-65
2023/12/06 07:40:22;;;;;;;2.38;2.28;;;;;;;;;;5048496;28;20067;-66
2023/12/06 07:42:50;;;;;;;2.47;2.30;;;;;;;;;;5044312;28;20140;-64
2023/12/06 07:45:18;;;;;;;2.35;2.25;;;;;;;;;;5043395;28;20409;-65
2023/12/06 07:47:47;;;;;;;2.97;2.88;;;;;;;;;;5039504;28;20072;-66
2023/12/06 07:50:16;;;;;;;2.88;2.60;;;;;;;;;;5033780;28;20061;-65
2023/12/06 07:52:47;;;;;;;2.95;2.42;;;;;;;;;;5035887;28;20104;-65
2023/12/06 07:55:16;;;;;;;2.50;2.40;;;;;;;;;;5043412;28;20118;-66
2023/12/06 07:57:46;;;;;;;2.60;2.47;;;;;;;;;;5045154;28;20053;-65
2023/12/06 08:00:15;;;;;;;2.58;2.47;;;;;;;;;;5047828;28;20052;-66
2023/12/06 08:02:44;;;;;;;2.80;2.60;;;;;;;;;;5046726;28;20494;-64
2023/12/06 08:05:12;;;;;;;3.08;2.42;;;;;;;;;;5047067;28;20701;-63
2023/12/06 08:07:42;;;;;;;2.35;2.20;;;;;;;;;;5047387;28;20124;-66
2023/12/06 08:10:19;;;;;;;2.67;2.40;;;;;;;;;;5040299;28;20144;-67
2023/12/06 08:12:48;;;;;;;2.65;2.55;;;;;;;;;;5035547;28;20386;-65
2023/12/06 08:15:17;;;;;;;2.55;2.45;;;;;;;;;;5047409;28;20136;-65
2023/12/06 08:17:45;;;;;;;2.30;2.20;;;;;;;;;;5043211;28;20058;-65
2023/12/06 08:20:14;;;;;;;2.55;2.45;;;;;;;;;;5046434;28;20572;-65
2023/12/06 08:22:42;;;;;;;2.65;2.55;;;;;;;;;;5040968;28;20072;-65
2023/12/06 08:25:12;;;;;;;2.67;2.58;;;;;;;;;;5044988;28;20454;-65
2023/12/06 08:27:41;;;;;;;2.42;2.33;;;;;;;;;;5026831;28;20260;-65
2023/12/06 08:30:10;;;;;;;2.40;2.25;;;;;;;;;;5044385;28;20132;-65
2023/12/06 08:32:38;;;;;;;2.35;2.25;;;;;;;;;;5044123;28;20448;-65
2023/12/06 08:35:07;;;;;;;2.63;2.53;;;;;;;;;;5040756;28;20149;-64
2023/12/06 08:37:35;;;;;;;2.40;2.30;;;;;;;;;;5047017;28;20041;-68
2023/12/06 08:40:06;;;;;;;2.63;2.47;;;;;;;;;;5045411;28;20516;-66
2023/12/06 08:42:36;;;;;;;2.55;2.45;;;;;;;;;;5047031;28;20163;-66
2023/12/06 08:45:05;;;;;;;2.72;2.33;;;;;;;;;;5046606;28;20060;-66
2023/12/06 08:47:33;;;;;;;3.17;2.33;;;;;;;;;;5044750;28;20049;-65
2023/12/06 08:50:04;;;;;;;2.50;2.40;;;;;;;;;;5047361;28;20143;-67
2023/12/06 08:52:35;;;;;;;2.95;2.55;;;;;;;;;;5038608;28;20049;-65
2023/12/06 08:55:04;;;;;;;3.25;2.72;;;;;;;;;;5046559;28;20502;-65
2023/12/06 08:57:33;;;;;;;2.40;2.30;;;;;;;;;;5040284;28;20061;-68
2023/12/06 09:00:07;;;;;;;2.60;2.40;;;;;;;;;;5047715;28;20498;-67
2023/12/06 09:02:35;;;;;;;2.65;2.50;;;;;;;;;;5045219;28;20060;-63
2023/12/06 09:05:04;;;;;;;2.40;2.30;;;;;;;;;;5041739;28;20466;-63
2023/12/06 09:07:32;;;;;;;3.35;2.72;;;;;;;;;;5037137;28;20053;-63
2023/12/06 09:10:01;;;;;;;2.13;2.03;;;;;;;;;;5039828;28;20045;-63
2023/12/06 09:12:29;;;;;;;2.42;2.33;;;;;;;;;;5050730;28;20045;-65
2023/12/06 09:14:58;;;;;;;2.20;2.10;;;;;;;;;;5043229;28;20076;-63
2023/12/06 09:17:28;;;;;;;1.95;1.85;;;;;;;;;;5047204;28;20045;-64
2023/12/06 09:19:57;;;;;;;2.58;2.47;;;;;;;;;;5051197;28;20059;-64
2023/12/06 09:22:25;;;;;;;3.03;2.92;;;;;;;;;;5046667;28;20040;-64
2023/12/06 09:24:54;;;;;;;2.58;2.47;;;;;;;;;;5044816;28;20049;-65
2023/12/06 09:27:22;;;;;;;2.50;2.35;;;;;;;;;;5046358;28;20045;-64
2023/12/06 09:29:52;;;;;;;2.63;2.53;;;;;;;;;;5050903;28;20041;-63
2023/12/06 09:32:20;;;;;;;2.38;2.20;;;;;;;;;;5041154;28;20786;-63
2023/12/06 09:34:50;;;;;;;3.08;2.97;;;;;;;;;;5042930;28;20107;-66
2023/12/06 09:37:19;;;;;;;2.72;2.63;;;;;;;;;;5037400;28;20060;-66
2023/12/06 09:39:48;;;;;;;2.55;2.45;;;;;;;;;;5050681;28;20409;-65
2023/12/06 09:42:17;;;;;;;5.20;5.00;;;;;;;;;;5050106;28;20045;-63
2023/12/06 09:44:47;;;;;;;2.03;1.92;;;;;;;;;;5042568;28;20053;-64
2023/12/06 09:47:15;;;;;;;2.72;2.63;;;;;;;;;;5047839;28;20048;-63
2023/12/06 09:49:44;;;;;;;3.20;2.88;;;;;;;;;;5048137;28;20521;-65
2023/12/06 09:52:20;;;;;;;3.10;2.90;;;;;;;;;;5047886;28;20481;-63
2023/12/06 09:54:50;;;;;;;2.78;2.60;;;;;;;;;;5048777;28;20567;-63
2023/12/06 09:57:18;;;;;;;2.80;2.60;;;;;;;;;;5040392;28;20536;-66
2023/12/06 09:59:48;;;;;;;2.83;1.00;;;;;;;;;;5046731;28;20403;-63
2023/12/06 10:02:17;;;;;;;2.20;1.23;;;;;;;;;;5042409;28;20045;-65
2023/12/06 10:04:49;;;;;;;0.95;0.90;;;;;;;;;;5046782;28;20055;-64
2023/12/06 10:07:21;;;;;;;1.30;1.20;;;;;;;;;;5046226;28;20044;-63
2023/12/06 10:09:50;;;;;;;1.88;0.85;;;;;;;;;;5047698;28;20052;-65
2023/12/06 10:12:21;;;;;;;2.35;1.00;;;;;;;;;;5047070;28;20051;-64
2023/12/06 10:14:58;;;;;;;4.43;1.50;;;;;;;;;;5047243;28;20956;-65
2023/12/06 10:17:26;;;;;;;1.70;1.23;;;;;;;;;;5045503;28;20041;-65
2023/12/06 10:19:56;;;;;;;2.42;1.00;;;;;;;;;;5044687;28;20053;-64
2023/12/06 10:22:29;;;;;;;0.90;0.90;;;;;;;;;;5044326;28;20037;-64
2023/12/06 10:24:59;;;;;;;1.00;1.00;;;;;;;;;;5044479;28;20052;-64
2023/12/06 10:27:28;;;;;;;1.20;1.02;;;;;;;;;;5046484;28;20051;-66
2023/12/06 10:29:59;;;;;;;1.30;1.20;;;;;;;;;;5049610;28;20533;-63
2023/12/06 10:32:28;;;;;;;1.48;1.13;;;;;;;;;;5037454;28;20050;-63
2023/12/06 10:34:59;;;;;;;2.15;1.40;;;;;;;;;;5045424;28;20087;-63
2023/12/06 10:37:29;;;;;;;1.98;1.27;;;;;;;;;;5038719;28;20060;-66
2023/12/06 10:40:00;;;;;;;2.92;1.40;;;;;;;;;;5048214;28;20049;-64
2023/12/06 10:42:33;;;;;;;1.73;1.10;;;;;;;;;;5046441;28;20414;-63
2023/12/06 10:45:04;;;;;;;1.60;1.20;;;;;;;;;;5047556;28;20063;-65
2023/12/06 10:47:33;;;;;;;3.35;1.35;;;;;;;;;;5046044;28;20818;-63
2023/12/06 10:50:03;;;;;;;0.90;0.90;;;;;;;;;;5048422;28;20087;-63
2023/12/06 10:52:34;;;;;;;1.15;1.02;;;;;;;;;;5043341;28;20430;-67
2023/12/06 10:55:03;;;;;;;1.25;1.13;;;;;;;;;;5047224;28;20391;-65
2023/12/06 10:57:35;;;;;;;1.58;1.08;;;;;;;;;;5043345;28;20052;-64
2023/12/06 11:00:05;;;;;;;1.45;1.08;;;;;;;;;;5048634;28;20055;-63
2023/12/06 11:02:34;;;;;;;1.73;1.00;;;;;;;;;;5047875;28;20366;-63
2023/12/06 11:05:05;;;;;;;3.55;1.20;;;;;;;;;;5038389;28;20048;-65
2023/12/06 11:07:42;;;;;;;1.33;1.05;;;;;;;;;;5046219;28;20043;-63
2023/12/06 11:10:16;;;;;;;1.10;1.00;;;;;;;;;;5044790;28;20045;-65
2023/12/06 11:12:51;;;;;;;1.50;1.27;;;;;;;;;;5046201;28;20045;-63
2023/12/06 11:15:24;;;;;;;1.83;1.30;;;;;;;;;;5044817;28;20049;-63
2023/12/06 11:17:57;;;;;;;1.20;1.10;;;;;;;;;;5044852;28;20103;-65
2023/12/06 11:20:26;;;;;;;2.28;1.80;;;;;;;;;;5048313;28;20056;-64
2023/12/06 11:22:57;;;;;;;1.70;1.25;;;;;;;;;;5044502;28;20060;-64
2023/12/06 11:25:28;;;;;;;8.27;1.60;;;;;;;;;;5045768;28;20045;-66
2023/12/06 11:27:58;;;;;;;2.88;1.40;;;;;;;;;;5044883;28;20099;-63
2023/12/06 11:30:27;;;;;;;1.52;1.15;;;;;;;;;;5046911;28;20045;-63
2023/12/06 11:32:59;;;;;;;1.88;1.30;;;;;;;;;;5048309;28;20052;-64
2023/12/06 11:35:28;;;;;;;1.27;1.17;;;;;;;;;;5042253;28;20481;-63
2023/12/06 11:37:58;;;;;;;2.55;1.10;;;;;;;;;;5047788;28;20124;-62
2023/12/06 11:40:27;;;;;;;1.65;1.05;;;;;;;;;;5044470;28;20064;-63
2023/12/06 11:42:58;;;;;;;1.17;1.08;;;;;;;;;;5038542;28;20055;-64
2023/12/06 11:45:28;;;;;;;1.40;1.30;;;;;;;;;;5037297;28;20049;-64
2023/12/06 11:47:59;;;;;;;1.63;1.30;;;;;;;;;;5034860;28;20073;-63
2023/12/06 11:50:28;;;;;;;7.60;1.70;;;;;;;;;;5045809;28;20056;-64
2023/12/06 11:53:02;;;;;;;2.85;1.27;;;;;;;;;;5044965;28;20135;-63
2023/12/06 11:55:31;;;;;;;1.38;1.17;;;;;;;;;;5047784;28;20631;-63
2023/12/06 11:58:00;;;;;;;2.38;1.20;;;;;;;;;;5043530;28;20067;-64
2023/12/06 12:00:29;;;;;;;1.30;1.20;;;;;;;;;;5031157;28;20132;-65
2023/12/06 12:02:59;;;;;;;2.45;1.30;;;;;;;;;;5046272;28;20122;-64
2023/12/06 12:05:27;;;;;;;2.58;1.38;;;;;;;;;;5045627;28;20048;-67
2023/12/06 12:07:56;;;;;;;2.33;1.25;;;;;;;;;;5035107;28;20136;-64
2023/12/06 12:10:26;;;;;;;1.65;1.33;;;;;;;;;;5047366;28;20052;-63
2023/12/06 12:12:55;;;;;;;1.77;1.40;;;;;;;;;;5047703;28;20132;-63
2023/12/06 12:15:25;;;;;;;3.25;1.25;;;;;;;;;;5040530;28;20049;-66
2023/12/06 12:17:53;;;;;;;1.67;1.17;;;;;;;;;;5043126;28;20053;-64
2023/12/06 12:20:22;;;;;;;3.85;1.40;;;;;;;;;;5042091;28;20502;-65
2023/12/06 12:22:51;;;;;;;1.67;1.33;;;;;;;;;;5046206;28;20068;-65
2023/12/06 12:25:22;;;;;;;2.42;1.33;;;;;;;;;;5047587;28;20060;-62
2023/12/06 12:27:52;;;;;;;2.70;1.40;;;;;;;;;;5034743;28;20054;-64
2023/12/06 12:30:20;;;;;;;4.18;1.90;;;;;;;;;;5047527;28;20052;-65
2023/12/06 12:32:50;;;;;;;5.25;1.52;;;;;;;;;;5047484;28;20056;-65
2023/12/06 12:35:19;;;;;;;2.17;1.50;;;;;;;;;;5045122;28;20185;-67
2023/12/06 12:37:48;;;;;;;4.20;1.60;;;;;;;;;;5040428;28;20067;-63
2023/12/06 12:40:18;;;;;;;2.35;1.25;;;;;;;;;;5051243;28;20080;-65
2023/12/06 12:42:47;;;;;;;1.23;1.10;;;;;;;;;;5045039;28;20049;-63
2023/12/06 12:45:19;;;;;;;1.73;1.40;;;;;;;;;;5048183;28;20141;-65
2023/12/06 12:47:47;;;;;;;2.80;1.35;;;;;;;;;;5050599;28;20513;-64
2023/12/06 12:50:19;;;;;;;2.40;1.40;;;;;;;;;;5043379;28;20137;-64
2023/12/06 12:52:49;;;;;;;2.20;1.25;;;;;;;;;;5039899;28;20045;-63
2023/12/06 12:55:18;;;;;;;2.50;1.70;;;;;;;;;;5047121;28;20044;-62
2023/12/06 12:57:47;;;;;;;2.83;1.33;;;;;;;;;;5044586;28;20049;-63
2023/12/06 13:00:23;;;;;;;1.83;1.60;;;;;;;;;;5042294;28;20049;-64
2023/12/06 13:02:52;;;;;;;1.70;1.23;;;;;;;;;;5041148;28;20052;-66
2023/12/06 13:05:21;;;;;;;7.07;1.80;;;;;;;;;;5040407;28;20343;-65
2023/12/06 13:07:52;;;;;;;1.33;1.13;;;;;;;;;;5048387;28;20052;-65
2023/12/06 13:10:20;;;;;;;4.05;1.50;;;;;;;;;;5049769;28;20460;-64
2023/12/06 13:12:49;;;;;;;2.53;1.25;;;;;;;;;;5049049;28;20506;-64
2023/12/06 13:15:17;;;;;;;1.88;1.42;;;;;;;;;;5048227;28;20140;-64
2023/12/06 13:17:48;;;;;;;1.60;1.35;;;;;;;;;;5040593;28;20075;-65
2023/12/06 13:20:17;;;;;;;2.60;1.35;;;;;;;;;;5043504;28;20723;-66
2023/12/06 13:22:45;;;;;;;1.42;1.20;;;;;;;;;;5048894;28;20049;-63
2023/12/06 13:25:14;;;;;;;1.30;1.13;;;;;;;;;;5036828;28;20052;-65
2023/12/06 13:27:42;;;;;;;1.30;1.20;;;;;;;;;;5036687;28;20437;-64
2023/12/06 13:30:11;;;;;;;2.15;1.48;;;;;;;;;;5039758;28;20413;-64
2023/12/06 13:32:40;;;;;;;3.63;1.58;;;;;;;;;;5045240;28;20088;-67
2023/12/06 13:35:10;;;;;;;1.20;1.10;;;;;;;;;;5034392;28;20045;-65
2023/12/06 13:37:51;;;;;;;2.13;1.50;;;;;;;;;;5041697;28;20048;-63
2023/12/06 13:40:20;;;;;;;3.17;1.70;;;;;;;;;;5046611;28;20077;-64
2023/12/06 13:42:48;;;;;;;3.22;1.60;;;;;;;;;;5041818;28;20054;-66
2023/12/06 13:45:17;;;;;;;1.58;1.30;;;;;;;;;;5039012;28;20136;-65
2023/12/06 13:47:45;;;;;;;3.88;1.38;;;;;;;;;;5044226;28;20065;-64
2023/12/06 13:50:15;;;;;;;1.83;1.17;;;;;;;;;;5039511;28;20148;-64
2023/12/06 13:52:44;;;;;;;2.42;1.60;;;;;;;;;;5042278;28;20478;-63
2023/12/06 13:55:12;;;;;;;2.75;1.67;;;;;;;;;;5037680;28;20044;-67
2023/12/06 13:57:41;;;;;;;3.05;1.70;;;;;;;;;;5045759;28;20041;-67
2023/12/06 14:00:10;;;;;;;3.00;1.30;;;;;;;;;;5045377;28;20041;-64
2023/12/06 14:02:38;;;;;;;1.33;1.23;;;;;;;;;;5043154;28;20051;-65
2023/12/06 14:05:07;;;;;;;2.55;1.65;;;;;;;;;;5045200;28;20486;-68
2023/12/06 14:07:37;;;;;;;2.17;1.38;;;;;;;;;;5041532;28;20061;-69
2023/12/06 14:10:06;;;;;;;2.03;1.30;;;;;;;;;;5045432;28;20052;-68
2023/12/06 14:12:35;;;;;;;1.33;1.23;;;;;;;;;;5045383;28;20049;-65
2023/12/06 14:15:04;;;;;;;1.92;1.50;;;;;;;;;;5045243;28;20379;-64
2023/12/06 14:17:33;;;;;;;2.97;1.40;;;;;;;;;;5047797;28;20052;-65
2023/12/06 14:20:02;;;;;;;2.80;1.50;;;;;;;;;;5044054;28;20045;-65
2023/12/06 14:22:31;;;;;;;1.67;1.40;;;;;;;;;;5044794;28;20080;-67
2023/12/06 14:25:01;;;;;;;1.55;1.35;;;;;;;;;;5042326;28;20103;-67
2023/12/06 14:27:29;;;;;;;1.50;1.35;;;;;;;;;;5042485;28;20176;-69
2023/12/06 14:29:58;;;;;;;3.40;1.63;;;;;;;;;;5041092;28;20114;-64
2023/12/06 14:32:40;;;;;;;2.92;1.60;;;;;;;;;;5044568;28;20037;-66
2023/12/06 14:35:11;;;;;;;1.77;1.67;;;;;;;;;;5041012;28;20140;-66
2023/12/06 14:37:40;;;;;;;1.88;1.55;;;;;;;;;;5043040;28;20135;-64
2023/12/06 14:40:13;;;;;;;2.60;1.90;;;;;;;;;;5046801;28;20051;-67
2023/12/06 14:42:41;;;;;;;3.83;1.70;;;;;;;;;;5047741;28;20052;-65
2023/12/06 14:45:12;;;;;;;2.03;1.77;;;;;;;;;;5043035;28;20064;-65
2023/12/06 14:47:41;;;;;;;1.98;1.77;;;;;;;;;;5039866;28;20059;-63
2023/12/06 14:50:10;;;;;;;3.60;1.55;;;;;;;;;;5043358;28;20061;-64
2023/12/06 14:52:39;;;;;;;4.75;1.95;;;;;;;;;;5045702;28;20464;-64
2023/12/06 14:55:09;;;;;;;2.17;1.48;;;;;;;;;;5044905;28;20063;-65